Latest Weather Observations for Latrobe Valley

IDV60801

Issued at 8:52 pm EDT Friday 18 January 2019 (issued every 10 minutes, with the page automatically refreshed every 10 minutes)

About weather observations | Map of weather stations | Latest weather observations for VIC | Other Formats
Station Details ID: 085280 Name: LATROBE VALLEY AIRPORT Lat: -38.21 Lon: 146.47 Height: 55.7 m
Data from the previous 72 hours. | See also: Recent months at Latrobe Valley
Date/Time
EDT
Temp
°C
App
Temp
°C
Dew
Point
°C
Rel
Hum
%
Delta-T
°C
Wind Press
QNH
hPa
Press
MSL
hPa
Rain since
9am
mm
Dir  Spd
km/h
Gust
km/h
Spd
kts
Gust
kts
18/08:30pm 20.2 15.6 16.2 78 2.4 SW 35 41 19 22 1011.9 1011.8 0.4
18/08:00pm 21.0 16.4 17.0 78 2.4 SW 37 50 20 27 1010.7 1010.6 0.4
18/07:30pm 22.3 19.5 18.1 77 2.6 SW 30 41 16 22 1010.1 1010.0 0.4
18/07:00pm 25.0 23.2 18.7 68 4.0 WSW 26 39 14 21 1008.8 1008.7 0.4
18/06:46pm 25.5 22.9 17.9 63 4.8 WSW 28 41 15 22 1008.9 1008.8 0.4
18/06:30pm 26.1 25.7 18.0 61 5.1 W 17 22 9 12 1008.5 1008.4 0.4
18/06:00pm 25.1 24.5 18.5 67 4.2 W 19 24 10 13 1008.5 1008.4 0.4
18/05:30pm 25.9 24.8 17.8 61 5.1 W 20 28 11 15 1008.2 1008.1 0.4
18/05:00pm 26.8 24.9 17.6 57 5.8 WSW 24 32 13 17 1007.5 1007.4 0.4
18/04:30pm 27.7 26.8 18.1 56 6.1 SW 20 26 11 14 1007.4 1007.3 0.4
18/04:00pm 27.9 26.9 18.0 55 6.3 SW 20 26 11 14 1006.7 1006.5 0.4
18/03:30pm 27.4 26.9 19.2 61 5.3 SW 20 28 11 15 1007.6 1007.5 0.4
18/03:00pm 25.7 26.6 20.0 71 3.7 WSW 15 20 8 11 1007.3 1007.2 0.4
18/02:30pm 24.9 25.6 19.7 73 3.4 WNW 15 22 8 12 1008.2 1008.1 0.4
18/02:00pm 24.0 23.8 19.3 75 3.0 WNW 19 24 10 13 1008.4 1008.3 0.4
18/01:45pm 24.7 22.7 18.2 67 4.1 W 26 37 14 20 1008.9 1008.8 0.2
18/01:30pm 29.9 27.3 16.0 43 8.6 WSW 24 35 13 19 1007.6 1007.5 0.0
18/01:00pm 31.4 29.0 15.4 38 9.9 WSW 22 32 12 17 1007.5 1007.4 0.0
18/12:30pm 32.3 28.0 17.0 40 9.7 SW 35 50 19 27 1008.2 1008.1 0.0
18/12:08pm 31.1 29.5 15.9 40 9.5 WSW 19 39 10 21 1008.3 1008.2 0.0
18/12:00pm 31.3 31.1 15.7 39 9.7 SW 11 28 6 15 1007.3 1007.2 0.0
18/11:30am 32.4 30.0 16.3 38 10.1 SW 24 35 13 19 1007.4 1007.3 0.0
18/11:00am 31.9 31.8 17.0 41 9.5 WNW 13 22 7 12 1007.6 1007.5 0.0
18/10:30am 27.3 28.8 17.5 55 6.2 WSW 6 19 3 10 1008.3 1008.2 0.0
18/10:00am 26.3 28.4 17.1 57 5.8 NNE 2 6 1 3 1008.0 1007.9 0.0
18/09:30am 25.7 26.6 17.6 61 5.1 NE 9 13 5 7 1007.8 1007.7 0.0
18/09:00am 23.2 24.9 18.1 73 3.2 NNW 6 9 3 5 1008.5 1008.4 0.4
18/08:30am 22.8 25.7 18.3 76 2.8 CALM 0 0 0 0 1008.2 1008.1 0.4
18/08:00am 22.1 23.8 18.1 78 2.5 WNW 6 9 3 5 1008.4 1008.3 0.4
18/07:30am 21.8 23.2 17.8 78 2.5 NNW 7 9 4 5 1008.3 1008.2 0.4
18/07:00am 21.8 22.6 17.4 76 2.7 SSE 9 13 5 7 1007.7 1007.6 0.4
18/06:30am 22.0 22.6 16.9 73 3.1 SE 9 17 5 9 1008.2 1008.1 0.4
18/06:00am 22.1 22.7 16.8 72 3.2 ESE 9 17 5 9 1008.2 1008.1 0.4
18/05:30am 21.7 21.8 17.5 77 2.6 NE 13 19 7 10 1007.8 1007.7 0.4
18/05:00am 21.0 22.0 17.8 82 2.0 ENE 9 13 5 7 1007.7 1007.6 0.4
18/04:30am 20.5 21.9 17.9 85 1.6 NE 7 9 4 5 1008.0 1007.9 0.4
18/04:00am 21.3 22.5 16.9 76 2.7 ENE 6 13 3 7 1008.1 1008.0 0.4
18/03:36am 22.2 22.5 16.9 72 3.2 NNW 11 15 6 8 1009.5 1009.4 0.2
18/03:30am 22.3 22.1 16.6 70 3.5 WSW 13 15 7 8 1011.5 1011.4 0.2
18/03:11am 22.6 21.8 15.0 62 4.5 SW 13 22 7 12 1010.7 1010.6 0.0
18/03:00am 23.0 23.2 14.8 60 4.9 S 7 9 4 5 1008.6 1008.5 0.0
18/02:30am 23.7 23.5 14.7 57 5.4 SSW 9 13 5 7 1008.6 1008.5 0.0
18/02:00am 23.6 24.8 14.9 58 5.2 ENE 2 7 1 4 1008.2 1008.1 0.0
18/01:30am 23.5 23.7 14.8 58 5.2 NNW 7 11 4 6 1008.9 1008.8 0.0
18/01:00am 24.6 23.3 14.7 54 5.9 WSW 15 19 8 10 1009.7 1009.6 0.0
18/12:30am 25.4 21.9 14.5 51 6.5 WSW 26 32 14 17 1009.6 1009.5 0.0
18/12:00am 25.4 23.5 15.7 55 5.9 SW 20 26 11 14 1009.3 1009.2 0.0
 
Date/Time
EDT
Temp
°C
App
Temp
°C
Dew
Point
°C
Rel
Hum
%
Delta-T
°C
Wind Press
QNH
hPa
Press
MSL
hPa
Rain since
9am
mm
Dir  Spd
km/h
Gust
km/h
Spd
kts
Gust
kts
17/11:30pm 26.5 24.5 15.5 50 6.7 SW 20 28 11 15 1009.4 1009.3 0.0
17/11:00pm 25.9 25.8 15.0 51 6.6 SW 9 13 5 7 1009.5 1009.4 0.0
17/10:30pm 26.7 27.1 14.8 48 7.2 SE 6 11 3 6 1009.5 1009.4 0.0
17/10:00pm 27.1 28.4 15.1 47 7.3 W 2 6 1 3 1009.1 1009.0 0.0
17/09:30pm 27.5 28.2 15.5 48 7.3 W 6 7 3 4 1008.4 1008.3 0.0
17/09:00pm 28.7 28.3 14.1 40 8.8 W 9 13 5 7 1008.0 1007.9 0.0
17/08:30pm 29.3 28.5 13.9 39 9.3 W 11 13 6 7 1007.8 1007.7 0.0
17/08:00pm 30.6 30.3 14.3 37 9.9 WSW 9 11 5 6 1007.5 1007.4 0.0
17/07:30pm 31.1 31.1 14.3 36 10.2 SW 7 11 4 6 1007.3 1007.2 0.0
17/07:00pm 31.8 31.9 14.4 34 10.7 W 7 9 4 5 1007.2 1007.0 0.0
17/06:30pm 32.5 31.6 13.7 32 11.4 WNW 11 15 6 8 1006.9 1006.7 0.0
17/06:00pm 32.5 31.2 13.7 32 11.4 WNW 13 19 7 10 1006.7 1006.5 0.0
17/05:30pm 32.0 29.4 13.2 31 11.3 W 19 26 10 14 1007.0 1006.8 0.0
17/05:00pm 30.9 28.6 14.1 36 10.2 WNW 19 24 10 13 1007.9 1007.8 0.0
17/04:30pm 32.6 28.2 12.8 30 11.9 W 28 37 15 20 1008.5 1008.4 0.0
17/04:00pm 33.4 29.2 13.5 30 12.1 W 28 39 15 21 1008.3 1008.2 0.0
17/03:30pm 32.8 29.5 12.9 29 11.9 W 22 30 12 16 1008.1 1008.0 0.0
17/03:00pm 31.9 29.5 14.5 34 10.7 SW 20 26 11 14 1007.5 1007.4 0.0
17/02:30pm 31.2 31.2 15.2 38 9.9 S 9 17 5 9 1006.9 1006.7 0.0
17/02:00pm 30.4 30.3 16.0 41 9.0 W 11 13 6 7 1007.7 1007.6 0.0
17/01:30pm 31.4 30.3 15.4 38 9.9 W 15 20 8 11 1008.4 1008.3 0.0
17/01:00pm 32.0 31.4 14.6 34 10.7 SW 11 20 6 11 1008.3 1008.2 0.0
17/12:30pm 32.1 29.1 13.8 33 11.1 WSW 22 30 12 16 1008.6 1008.5 0.0
17/12:00pm 31.9 29.5 14.5 34 10.7 WSW 20 28 11 15 1008.2 1008.1 0.0
17/11:30am 32.1 28.3 14.7 35 10.7 WSW 28 39 15 21 1008.7 1008.6 0.0
17/11:00am 31.9 29.3 15.8 38 10.1 W 24 35 13 19 1008.9 1008.8 0.0
17/10:30am 31.1 29.5 15.1 38 9.9 W 17 20 9 11 1008.5 1008.4 0.0
17/10:00am 29.7 28.7 14.7 40 9.2 W 13 17 7 9 1008.2 1008.1 0.0
17/09:30am 26.5 26.4 16.1 52 6.4 WSW 11 17 6 9 1007.8 1007.7 0.0
17/09:00am 24.0 24.8 16.3 62 4.7 SW 7 17 4 9 1007.4 1007.3 0.0
17/08:30am 24.0 24.6 16.8 64 4.4 WSW 9 20 5 11 1007.7 1007.6 0.0
17/08:00am 22.0 23.1 17.2 74 3.0 SW 7 11 4 6 1007.3 1007.2 0.0
17/07:30am 20.3 20.8 16.5 79 2.3 N 9 13 5 7 1006.9 1006.7 0.0
17/07:00am 20.7 21.0 16.1 75 2.8 SSW 9 17 5 9 1008.1 1008.0 0.0
17/06:30am 20.7 20.9 15.7 73 3.0 SW 9 13 5 7 1008.6 1008.5 0.0
17/06:00am 19.6 19.9 15.9 79 2.2 SW 9 11 5 6 1008.7 1008.6 0.0
17/05:30am 19.7 20.5 15.8 78 2.3 S 6 9 3 5 1007.7 1007.6 0.0
17/05:00am 18.9 20.5 15.0 78 2.3 CALM 0 6 0 3 1007.3 1007.2 0.0
17/04:30am 20.1 20.8 15.7 76 2.6 ESE 6 7 3 4 1007.1 1006.9 0.0
17/04:00am 19.4 20.9 15.7 79 2.2 NNW 2 6 1 3 1007.1 1006.9 0.0
17/03:30am 19.7 20.5 15.8 78 2.3 NE 6 7 3 4 1006.9 1006.7 0.0
17/03:00am 19.7 19.8 15.4 76 2.6 N 9 11 5 6 1007.3 1007.2 0.0
17/02:30am 20.3 19.9 15.3 73 3.0 NNE 11 13 6 7 1007.4 1007.3 0.0
17/02:00am 20.9 21.2 15.0 69 3.5 NE 7 11 4 6 1007.9 1007.8 0.0
17/01:30am 20.3 19.9 15.3 73 3.0 NE 11 15 6 8 1008.7 1008.6 0.0
17/01:00am 22.1 21.7 14.2 61 4.6 NE 9 15 5 8 1009.2 1009.1 0.0
17/12:30am 22.1 21.5 14.7 63 4.4 ESE 11 17 6 9 1009.5 1009.4 0.0
17/12:00am 21.5 20.6 15.8 70 3.4 E 15 20 8 11 1010.2 1010.1 0.0
 
Date/Time
EDT
Temp
°C
App
Temp
°C
Dew
Point
°C
Rel
Hum
%
Delta-T
°C
Wind Press
QNH
hPa
Press
MSL
hPa
Rain since
9am
mm
Dir  Spd
km/h
Gust
km/h
Spd
kts
Gust
kts
16/11:30pm 20.9 19.6 15.9 73 3.0 E 17 28 9 15 1010.8 1010.7 0.0
16/11:00pm 21.0 19.8 16.2 74 2.9 E 17 30 9 16 1011.4 1011.3 0.0
16/10:30pm 21.6 21.0 16.6 73 3.0 E 15 26 8 14 1011.5 1011.4 0.0
16/10:00pm 21.6 19.5 16.3 72 3.2 ENE 22 33 12 18 1011.8 1011.7 0.0
16/09:30pm 22.3 20.2 16.1 68 3.8 ENE 22 33 12 18 1011.3 1011.2 0.0
16/09:00pm 23.0 21.8 16.1 65 4.2 ENE 17 26 9 14 1013.0 1012.9 0.0
16/08:30pm 24.2 22.5 15.7 59 5.2 ENE 19 30 10 16 1013.3 1013.1 0.0
16/08:00pm 25.1 23.3 16.0 57 5.6 ENE 20 32 11 17 1012.1 1012.0 0.0
16/07:30pm 26.5 25.1 12.2 41 8.3 NE 11 15 6 8 1013.4 1013.2 0.0
16/07:00pm 26.6 24.5 12.3 41 8.3 S 15 22 8 12 1011.7 1011.6 0.0
16/06:30pm 28.9 24.7 11.0 33 10.3 SW 24 30 13 16 1012.6 1012.5 0.0
16/06:00pm 30.2 26.6 10.7 30 11.2 WSW 20 26 11 14 1011.3 1011.2 0.0
16/05:30pm 30.3 27.9 11.3 31 11.0 WSW 15 22 8 12 1011.4 1011.3 0.0
16/05:00pm 30.2 26.7 12.1 32 10.6 WSW 22 28 12 15 1011.2 1011.1 0.0
16/04:30pm 30.0 24.0 13.3 36 10.0 WSW 37 44 20 24 1010.7 1010.6 0.0
16/04:00pm 29.7 24.7 15.0 40 9.0 SW 35 44 19 24 1010.4 1010.3 0.0
16/03:30pm 32.1 26.9 13.3 31 11.3 SW 33 44 18 24 1010.2 1010.1 0.0
16/03:00pm 33.5 31.5 15.0 32 11.5 SW 19 32 10 17 1009.6 1009.5 0.0
16/02:30pm 34.7 34.1 15.6 32 12.0 SW 13 24 7 13 1009.2 1009.1 0.0
16/02:00pm 32.9 32.3 14.5 33 11.3 SW 11 20 6 11 1009.2 1009.1 0.0
16/01:30pm 33.6 32.3 13.6 29 12.2 SSW 13 20 7 11 1009.4 1009.3 0.0
16/01:00pm 32.8 31.2 12.9 29 12.0 SW 13 24 7 13 1009.8 1009.7 0.0
16/12:30pm 31.9 29.6 10.6 27 12.3 SW 13 20 7 11 1010.1 1010.0 0.0
16/12:00pm 30.0 27.7 10.5 30 11.1 SW 13 19 7 10 1010.2 1010.1 0.0
16/11:30am 29.3 27.1 10.9 32 10.5 SW 13 20 7 11 1010.2 1010.1 0.0
16/11:00am 27.8 26.3 10.5 34 9.8 W 9 15 5 8 1010.2 1010.1 0.0
16/10:30am 26.1 24.9 12.9 44 7.7 WNW 11 15 6 8 1010.3 1010.2 0.0
16/10:00am 24.1 22.4 13.6 52 6.1 WNW 15 17 8 9 1010.6 1010.5 0.0
16/09:30am 24.3 22.6 13.5 51 6.3 W 15 19 8 10 1010.9 1010.8 0.0
16/09:00am 23.0 20.7 12.9 53 5.8 W 17 22 9 12 1011.2 1011.1 0.0
16/08:30am 22.3 19.8 13.4 57 5.1 W 19 20 10 11 1011.1 1011.0 0.0
16/08:00am 21.2 19.3 13.1 60 4.6 WNW 15 19 8 10 1010.5 1010.4 0.0
16/07:30am 20.1 18.5 12.8 63 4.1 W 13 17 7 9 1010.2 1010.1 0.0
16/07:00am 19.2 17.8 14.5 74 2.7 W 15 19 8 10 1009.9 1009.8 0.0
16/06:30am 18.8 17.3 14.3 75 2.6 WSW 15 19 8 10 1009.6 1009.5 0.0
16/06:00am 18.6 16.7 11.9 65 3.7 SSW 13 17 7 9 1009.0 1008.9 0.0
16/05:30am 19.1 17.4 11.2 60 4.3 S 11 15 6 8 1008.9 1008.8 0.0
16/05:00am 18.0 17.0 12.2 69 3.2 WNW 9 13 5 7 1008.5 1008.4 0.0
16/04:30am 19.0 16.8 12.0 64 3.9 WSW 15 17 8 9 1009.1 1009.0 0.0
16/04:00am 18.5 17.6 13.6 73 2.8 W 11 15 6 8 1008.9 1008.8 0.0
16/03:30am 17.8 17.5 13.3 75 2.5 W 7 9 4 5 1008.8 1008.7 0.0
16/03:00am 18.4 18.6 13.1 71 3.0 SSW 4 7 2 4 1008.9 1008.8 0.0
16/02:30am 18.1 17.3 14.0 77 2.3 SW 11 13 6 7 1009.0 1008.9 0.0
16/02:00am 18.7 19.0 14.4 76 2.5 WSW 6 9 3 5 1009.0 1008.9 0.0
16/01:30am 19.7 20.0 15.1 75 2.7 WSW 7 13 4 7 1009.1 1009.0 0.0
16/01:00am 20.2 20.6 15.2 73 3.0 SW 7 9 4 5 1009.1 1009.0 0.0
16/12:30am 19.9 20.1 14.3 70 3.3 NW 6 9 3 5 1009.2 1009.1 0.0
16/12:00am 21.1 22.6 14.7 67 3.8 CALM 0 0 0 0 1009.3 1009.2 0.0
 
Date/Time
EDT
Temp
°C
App
Temp
°C
Dew
Point
°C
Rel
Hum
%
Delta-T
°C
Wind Press
QNH
hPa
Press
MSL
hPa
Rain since
9am
mm
Dir  Spd
km/h
Gust
km/h
Spd
kts
Gust
kts
15/11:30pm 23.6 24.4 16.4 64 4.4 ESE 7 13 4 7 1009.3 1009.2 0.0
15/11:00pm 24.1 24.5 16.4 62 4.7 SE 9 11 5 6 1009.7 1009.6 0.0
15/10:30pm 24.9 25.0 16.6 60 5.1 ENE 11 17 6 9 1009.6 1009.5 0.0
15/10:00pm 24.0 22.7 9.2 39 8.0 ENE 6 11 3 6 1009.9 1009.8 0.0
15/09:30pm 26.0 23.8 8.0 32 9.7 E 9 9 5 5 1009.8 1009.7 0.0
15/09:00pm 27.6 25.9 8.5 30 10.4 SSW 7 11 4 6 1009.9 1009.8 0.0

Other Formats:

Comma delimited format used in spreadsheet applications
http://www.bom.gov.au/fwo/IDV60801/IDV60801.94891.axf

JavaScript Object Notation format (JSON) in row-major order
http://www.bom.gov.au/fwo/IDV60801/IDV60801.94891.json